Weather at Santa Elena Airport

Public forecast

Using degrees Celsius for public forecast. Weather courtesy of forecast.io.

Closest aviation weather report (METAR) to Santa Elena Airport

Closest report is Nueva Hesperides International Airport, 96.1 nm (178.0 km) ESE.

2024/07/20 16:00 (retrieved 53 minutes ago)

SUSO 201600Z 12009KT 9999 FEW010 SCT070 BKN200 17/13 Q1021

Closest aviation forecast (TAF) to Santa Elena Airport

Closest forecast is Nueva Hesperides International Airport, 96.1 nm (178.0 km) ESE.

2024/07/20 12:57 (retrieved 4 hours ago)

TAF SUSO 201130Z 2012/2112 09008KT 8000 OVC008 TX22/2018Z TN13/2111Z BECMG 2014/2016 9999 SCT015 TEMPO 2100/2112 3000 BR BKN008 TEMPO 2106/2112 0800 FG OVC006